Time;durP1;ratioP1;P1;durP2;ratioP2;P2;SDS_P1;SDS_P2;PMS_P1;PMS_P2;Temp;Humidity;BMP_temperature;BMP_pressure;BME280_temperature;BME280_humidity;BME280_pressure;Samples;Min_cycle;Max_cycle;Signal;HPM_P1;HPM_P2
2021/08/30 00:01:14;;;;;;;4.30;4.00;;;15.70;99.90;;;;;;5032910;28;20464;-49
2021/08/30 00:03:39;;;;;;;4.37;4.00;;;15.90;99.90;;;;;;5033000;28;20190;-50
2021/08/30 00:06:05;;;;;;;5.00;4.60;;;15.70;99.90;;;;;;5027178;28;20441;-49
2021/08/30 00:08:31;;;;;;;4.88;4.38;;;15.60;99.90;;;;;;5029157;28;20178;-50
2021/08/30 00:10:57;;;;;;;5.20;4.70;;;15.90;99.90;;;;;;5035996;28;20236;-50
2021/08/30 00:13:23;;;;;;;5.25;4.75;;;16.10;99.90;;;;;;5020738;28;20198;-50
2021/08/30 00:15:48;;;;;;;5.80;5.30;;;15.70;99.90;;;;;;5031948;28;20178;-49
2021/08/30 00:18:15;;;;;;;6.43;5.93;;;16.00;99.90;;;;;;5031926;28;20304;-49
2021/08/30 00:20:40;;;;;;;6.28;5.78;;;15.90;99.90;;;;;;5031367;28;20209;-49
2021/08/30 00:23:06;;;;;;;6.33;5.53;;;16.30;99.90;;;;;;5029714;28;20218;-49
2021/08/30 00:25:32;;;;;;;6.07;5.57;;;16.20;99.90;;;;;;5027070;28;20528;-49
2021/08/30 00:27:58;;;;;;;7.17;6.47;;;15.80;99.90;;;;;;5020415;28;20238;-50
2021/08/30 00:30:23;;;;;;;6.80;6.10;;;16.00;99.90;;;;;;5030508;28;20442;-50
2021/08/30 00:32:49;;;;;;;8.27;6.07;;;15.90;99.90;;;;;;5024017;28;20186;-50
2021/08/30 00:35:15;;;;;;;6.00;5.50;;;16.00;99.90;;;;;;5021519;28;20477;-50
2021/08/30 00:37:41;;;;;;;7.00;6.40;;;16.00;99.90;;;;;;5030823;28;20468;-50
2021/08/30 00:40:08;;;;;;;7.13;6.50;;;16.10;99.90;;;;;;5023694;28;20269;-49
2021/08/30 00:42:34;;;;;;;7.20;6.60;;;16.10;99.90;;;;;;5019044;28;20441;-49
2021/08/30 00:45:06;;;;;;;7.45;6.85;;;16.10;99.90;;;;;;5027801;28;20210;-49
2021/08/30 00:47:32;;;;;;;7.15;6.55;;;16.20;99.90;;;;;;5028998;28;20322;-49
2021/08/30 00:49:58;;;;;;;7.33;6.73;;;16.10;99.90;;;;;;5030871;28;20230;-50
2021/08/30 00:52:24;;;;;;;7.80;7.10;;;16.10;99.90;;;;;;5031275;28;20197;-50
2021/08/30 00:54:50;;;;;;;7.47;6.88;;;16.10;99.90;;;;;;5031099;28;20269;-49
2021/08/30 00:57:16;;;;;;;8.20;7.50;;;16.20;99.90;;;;;;5027707;28;20245;-50
2021/08/30 00:59:42;;;;;;;7.20;6.55;;;16.00;99.90;;;;;;5029441;28;20289;-49
2021/08/30 01:02:09;;;;;;;8.50;7.30;;;16.00;99.90;;;;;;5031751;28;20725;-50
2021/08/30 01:04:36;;;;;;;7.40;6.70;;;16.10;99.90;;;;;;5031069;28;20178;-50
2021/08/30 01:07:12;;;;;;;7.95;7.20;;;16.10;99.90;;;;;;5021989;28;20206;-49
2021/08/30 01:09:45;;;;;;;8.02;7.25;;;16.20;99.90;;;;;;5025689;28;20186;-49
2021/08/30 01:12:16;;;;;;;8.18;7.47;;;16.10;99.90;;;;;;5026117;28;20193;-49
2021/08/30 01:14:50;;;;;;;7.07;6.47;;;15.90;99.90;;;;;;5030869;28;20190;-50
2021/08/30 01:17:19;;;;;;;7.90;7.20;;;16.20;99.90;;;;;;5026225;28;20316;-50
2021/08/30 01:20:06;;;;;;;8.13;7.43;;;15.90;99.90;;;;;;5029193;28;20255;-49
2021/08/30 01:22:37;;;;;;;8.57;7.88;;;16.00;99.90;;;;;;5029446;28;20221;-49
2021/08/30 01:25:04;;;;;;;8.70;7.90;;;16.20;99.90;;;;;;5027517;28;20185;-49
2021/08/30 01:27:30;;;;;;;9.30;8.48;;;16.00;99.90;;;;;;5018327;28;20225;-49
2021/08/30 01:30:11;;;;;;;9.02;8.23;;;16.00;99.90;;;;;;5030873;28;20288;-50
2021/08/30 01:32:42;;;;;;;9.73;8.82;;;16.00;99.90;;;;;;5025125;28;20187;-50
2021/08/30 01:35:12;;;;;;;8.90;8.10;;;16.10;99.90;;;;;;5030804;28;20190;-50
2021/08/30 01:37:41;;;;;;;9.52;8.73;;;15.60;99.90;;;;;;5031027;28;20305;-49
2021/08/30 01:40:10;;;;;;;9.60;8.80;;;16.10;99.90;;;;;;5021621;28;20244;-50
2021/08/30 01:42:38;;;;;;;9.65;8.80;;;16.20;99.90;;;;;;5026653;28;20181;-50
2021/08/30 01:45:07;;;;;;;9.02;8.23;;;16.30;99.90;;;;;;5028259;28;20194;-49
2021/08/30 01:47:34;;;;;;;9.48;8.57;;;16.30;99.90;;;;;;5030634;28;20206;-50
2021/08/30 01:50:02;;;;;;;9.55;8.65;;;16.20;99.90;;;;;;5029945;28;20621;-50
2021/08/30 01:52:31;;;;;;;9.15;8.27;;;16.10;99.90;;;;;;5022699;28;20182;-50
2021/08/30 01:55:01;;;;;;;9.13;8.32;;;16.20;99.90;;;;;;5021950;28;20674;-49
2021/08/30 01:57:28;;;;;;;8.63;7.93;;;16.20;99.90;;;;;;5028283;28;21733;-49
2021/08/30 02:02:38;;;;;;;8.10;7.40;;;16.40;99.90;;;;;;5031006;28;20193;-50
2021/08/30 02:05:04;;;;;;;8.90;8.17;;;16.10;99.90;;;;;;5016149;28;20187;-49
2021/08/30 02:07:30;;;;;;;8.50;7.70;;;16.00;99.90;;;;;;5024587;28;20263;-49
2021/08/30 02:09:56;;;;;;;8.30;7.60;;;16.00;99.90;;;;;;5020392;28;20187;-49
2021/08/30 02:12:21;;;;;;;8.50;7.80;;;16.10;99.90;;;;;;5028076;28;20639;-49
2021/08/30 02:14:47;;;;;;;7.10;6.50;;;16.30;99.90;;;;;;5027294;28;20543;-50
2021/08/30 02:17:25;;;;;;;7.40;6.80;;;16.30;99.90;;;;;;5023983;28;20214;-49
2021/08/30 02:20:10;;;;;;;7.78;7.13;;;16.40;99.90;;;;;;5023766;28;20186;-50
2021/08/30 02:22:41;;;;;;;12.65;7.40;;;16.30;99.90;;;;;;5030739;28;20190;-50
2021/08/30 02:25:13;;;;;;;7.15;6.63;;;16.20;99.90;;;;;;5021783;28;20191;-50
2021/08/30 02:28:05;;;;;;;8.80;7.90;;;16.20;99.90;;;;;;5015773;28;20213;-50
2021/08/30 02:30:38;;;;;;;7.10;6.57;;;16.10;99.90;;;;;;5022769;28;20209;-50
2021/08/30 02:33:08;;;;;;;7.50;6.90;;;16.00;99.90;;;;;;5020494;28;20190;-50
2021/08/30 02:35:38;;;;;;;8.73;8.02;;;16.10;99.90;;;;;;5023095;28;20186;-50
2021/08/30 02:38:04;;;;;;;7.85;7.05;;;15.90;99.90;;;;;;5023726;28;20774;-50
2021/08/30 02:40:31;;;;;;;8.20;7.50;;;16.10;99.90;;;;;;5021009;28;20278;-50
2021/08/30 02:43:01;;;;;;;8.80;8.00;;;15.90;99.90;;;;;;5024517;28;20996;-49
2021/08/30 02:45:28;;;;;;;8.23;7.53;;;15.80;99.90;;;;;;5018617;28;20178;-49
2021/08/30 02:47:56;;;;;;;8.93;8.02;;;16.10;99.90;;;;;;5027361;28;20205;-49
2021/08/30 02:50:24;;;;;;;7.93;7.28;;;15.80;99.90;;;;;;5026026;28;20639;-50
2021/08/30 02:52:51;;;;;;;8.50;7.80;;;16.00;99.90;;;;;;5029010;28;20178;-49
2021/08/30 02:55:17;;;;;;;8.23;7.53;;;16.00;99.90;;;;;;5027191;28;20186;-50
2021/08/30 02:57:44;;;;;;;8.32;7.70;;;16.00;99.90;;;;;;5026997;28;20214;-50
2021/08/30 03:00:10;;;;;;;7.32;6.75;;;16.10;99.90;;;;;;5027588;28;20182;-49
2021/08/30 03:02:37;;;;;;;6.78;6.25;;;15.90;99.90;;;;;;5028337;28;20178;-50
2021/08/30 03:05:04;;;;;;;6.20;5.70;;;16.10;99.90;;;;;;5028195;28;20188;-50
2021/08/30 03:07:31;;;;;;;6.43;5.82;;;15.40;99.90;;;;;;5027052;28;20202;-50
2021/08/30 03:09:58;;;;;;;5.13;4.72;;;16.00;99.90;;;;;;5034432;28;20205;-50
2021/08/30 03:12:26;;;;;;;6.38;5.78;;;16.00;99.90;;;;;;5037017;28;20205;-49
2021/08/30 03:14:54;;;;;;;5.82;5.43;;;16.10;99.90;;;;;;5027119;28;20206;-53
2021/08/30 03:17:21;;;;;;;5.05;4.65;;;15.60;99.90;;;;;;5025665;28;20220;-50
2021/08/30 03:19:48;;;;;;;4.55;4.15;;;16.00;99.90;;;;;;5031761;28;20600;-50
2021/08/30 03:22:15;;;;;;;5.43;5.03;;;15.80;99.90;;;;;;5032567;28;20221;-50
2021/08/30 03:24:43;;;;;;;4.93;4.53;;;15.80;99.90;;;;;;5033333;28;20213;-49
2021/08/30 03:27:14;;;;;;;5.07;4.65;;;15.90;99.90;;;;;;5032677;28;20210;-50
2021/08/30 03:29:40;;;;;;;5.55;4.35;;;15.70;99.90;;;;;;5026879;28;20660;-50
2021/08/30 03:32:08;;;;;;;4.22;3.90;;;15.70;99.90;;;;;;5029217;28;20220;-49
2021/08/30 03:34:36;;;;;;;5.78;5.22;;;15.80;99.90;;;;;;5028253;28;20186;-50
2021/08/30 03:37:03;;;;;;;4.30;4.00;;;15.70;99.90;;;;;;5032704;28;20256;-50
2021/08/30 03:39:29;;;;;;;4.63;4.32;;;15.90;99.90;;;;;;5029316;28;20174;-50
2021/08/30 03:41:56;;;;;;;4.50;4.20;;;15.70;99.90;;;;;;5031446;28;20182;-50
2021/08/30 03:44:23;;;;;;;5.28;4.88;;;15.60;99.90;;;;;;5033394;28;20765;-49
2021/08/30 03:46:50;;;;;;;5.70;5.20;;;15.80;99.90;;;;;;5032843;28;20214;-50
2021/08/30 03:49:16;;;;;;;6.68;5.25;;;15.60;99.90;;;;;;5032041;28;20210;-50
2021/08/30 03:51:42;;;;;;;5.63;5.13;;;15.70;99.90;;;;;;5027987;28;20273;-50
2021/08/30 03:54:09;;;;;;;6.38;5.78;;;15.70;99.90;;;;;;5031716;28;20220;-49
2021/08/30 03:56:36;;;;;;;6.70;6.10;;;15.70;99.90;;;;;;5024098;28;20239;-50
2021/08/30 03:59:03;;;;;;;6.40;5.80;;;15.70;99.90;;;;;;5024458;28;20186;-50
2021/08/30 04:01:30;;;;;;;6.80;6.20;;;15.80;99.90;;;;;;5026972;28;20186;-50
2021/08/30 04:03:59;;;;;;;7.65;6.95;;;15.60;99.90;;;;;;5030472;28;20193;-50
2021/08/30 04:06:26;;;;;;;7.05;6.45;;;15.70;99.90;;;;;;5025236;28;20210;-50
2021/08/30 04:08:52;;;;;;;7.90;7.10;;;15.60;99.90;;;;;;5032267;28;20648;-50
2021/08/30 04:11:19;;;;;;;7.70;7.10;;;15.70;99.90;;;;;;5019297;28;20198;-49
2021/08/30 04:13:45;;;;;;;8.02;6.90;;;15.90;99.90;;;;;;5032457;28;20461;-50
2021/08/30 04:16:11;;;;;;;9.23;7.35;;;15.70;99.90;;;;;;5029667;28;20934;-50
2021/08/30 04:18:37;;;;;;;6.63;6.03;;;15.70;99.90;;;;;;5017682;28;20186;-50
2021/08/30 04:21:03;;;;;;;7.60;6.90;;;15.80;99.90;;;;;;5022410;28;20182;-50
2021/08/30 04:23:30;;;;;;;7.27;6.63;;;15.50;99.90;;;;;;5031258;28;20190;-50
2021/08/30 04:25:57;;;;;;;7.43;6.78;;;15.70;99.90;;;;;;5030835;28;20440;-50
2021/08/30 04:28:22;;;;;;;8.23;7.43;;;15.50;99.90;;;;;;5030043;28;20300;-50
2021/08/30 04:30:48;;;;;;;9.50;8.43;;;15.80;99.90;;;;;;5026465;28;20277;-49
2021/08/30 04:33:16;;;;;;;9.68;7.82;;;15.60;99.90;;;;;;5029767;28;20698;-50
2021/08/30 04:35:42;;;;;;;8.45;7.65;;;15.80;99.90;;;;;;5028036;28;20189;-50
2021/08/30 04:38:08;;;;;;;8.43;7.63;;;15.70;99.90;;;;;;5028417;28;20214;-50
2021/08/30 04:40:34;;;;;;;8.52;7.68;;;15.80;99.90;;;;;;5030149;28;20248;-50
2021/08/30 04:43:00;;;;;;;10.50;8.80;;;15.70;99.90;;;;;;5033127;28;20179;-50
2021/08/30 04:45:25;;;;;;;10.75;9.65;;;15.90;99.90;;;;;;5034468;28;20187;-50
2021/08/30 04:47:51;;;;;;;9.70;8.80;;;15.50;99.90;;;;;;5031971;28;20205;-50
2021/08/30 04:50:17;;;;;;;10.27;9.27;;;15.80;99.90;;;;;;5028563;28;20833;-49
2021/08/30 04:52:43;;;;;;;9.83;8.93;;;15.70;99.90;;;;;;5028828;28;20228;-50
2021/08/30 04:55:10;;;;;;;10.63;8.83;;;16.00;99.90;;;;;;5031126;28;20475;-50
2021/08/30 04:57:36;;;;;;;8.82;8.00;;;15.50;99.90;;;;;;5028321;28;20216;-50
2021/08/30 05:00:07;;;;;;;11.83;9.40;;;15.70;99.90;;;;;;5030147;28;20612;-49
2021/08/30 05:02:32;;;;;;;10.60;9.52;;;16.00;99.90;;;;;;5028498;28;20444;-50
2021/08/30 05:04:58;;;;;;;12.47;10.03;;;16.00;99.90;;;;;;5028652;28;20243;-50
2021/08/30 05:07:24;;;;;;;10.23;9.20;;;16.10;99.90;;;;;;5029731;28;20202;-52
2021/08/30 05:09:50;;;;;;;9.77;8.57;;;16.00;99.90;;;;;;5035366;28;20193;-52
2021/08/30 05:12:16;;;;;;;10.70;9.40;;;16.00;99.90;;;;;;5029205;28;20187;-51
2021/08/30 05:14:41;;;;;;;9.33;8.40;;;15.90;99.90;;;;;;5030232;28;20198;-51
2021/08/30 05:17:07;;;;;;;8.93;8.13;;;15.70;99.90;;;;;;5035879;28;20736;-52
2021/08/30 05:19:33;;;;;;;8.80;6.83;;;15.70;99.90;;;;;;5027009;28;20197;-52
2021/08/30 05:21:58;;;;;;;7.93;7.13;;;15.50;99.90;;;;;;5030500;28;20186;-51
2021/08/30 05:24:24;;;;;;;8.50;7.67;;;15.70;99.90;;;;;;5035891;28;20262;-52
2021/08/30 05:26:50;;;;;;;8.53;7.73;;;15.60;99.90;;;;;;5030081;28;20267;-52
2021/08/30 05:29:15;;;;;;;10.10;8.00;;;15.60;99.90;;;;;;5026942;28;20572;-52
2021/08/30 05:31:42;;;;;;;10.83;9.73;;;15.90;99.90;;;;;;5026472;28;20190;-51
2021/08/30 05:34:08;;;;;;;10.85;9.15;;;15.40;99.90;;;;;;5021366;28;20206;-52
2021/08/30 05:36:33;;;;;;;11.47;10.23;;;15.70;99.90;;;;;;5028633;28;20238;-51
2021/08/30 05:38:59;;;;;;;11.40;9.97;;;15.50;99.90;;;;;;5026209;28;20616;-51
2021/08/30 05:41:25;;;;;;;10.33;9.23;;;15.50;99.90;;;;;;5025623;28;20206;-51
2021/08/30 05:43:51;;;;;;;10.73;9.70;;;15.70;99.90;;;;;;5027582;28;20432;-52
2021/08/30 05:46:16;;;;;;;10.23;8.70;;;15.30;99.90;;;;;;5026803;28;20525;-51
2021/08/30 05:48:47;;;;;;;11.03;9.30;;;15.60;99.90;;;;;;5028580;28;20265;-51
2021/08/30 05:51:13;;;;;;;11.35;10.13;;;15.90;99.90;;;;;;5026665;28;20206;-51
2021/08/30 05:53:40;;;;;;;10.20;9.02;;;15.70;99.90;;;;;;5023584;28;20551;-51
2021/08/30 05:56:08;;;;;;;10.32;9.30;;;15.70;99.90;;;;;;5022942;28;20183;-52
2021/08/30 05:58:34;;;;;;;9.82;8.60;;;16.00;99.90;;;;;;5021228;28;20255;-51
2021/08/30 06:01:01;;;;;;;9.55;8.65;;;16.00;99.90;;;;;;5018747;28;20186;-51
2021/08/30 06:03:26;;;;;;;11.15;9.95;;;15.90;99.90;;;;;;5023321;28;20183;-52
2021/08/30 06:05:52;;;;;;;10.93;9.83;;;16.10;99.90;;;;;;5024283;28;20175;-50
2021/08/30 06:08:18;;;;;;;10.50;9.50;;;16.00;99.90;;;;;;5030539;28;20205;-49
2021/08/30 06:10:43;;;;;;;10.00;9.00;;;15.50;99.90;;;;;;5028304;28;20269;-49
2021/08/30 06:13:09;;;;;;;10.20;9.13;;;16.10;99.90;;;;;;5024425;28;20281;-51
2021/08/30 06:15:35;;;;;;;10.50;9.40;;;16.00;99.90;;;;;;5024917;28;20195;-51
2021/08/30 06:18:00;;;;;;;12.10;10.90;;;16.00;99.90;;;;;;5017582;28;20206;-50
2021/08/30 06:20:26;;;;;;;11.17;10.07;;;16.20;99.90;;;;;;5026162;28;20183;-50
2021/08/30 06:22:52;;;;;;;10.20;8.70;;;16.20;99.90;;;;;;5027843;28;20556;-50
2021/08/30 06:25:17;;;;;;;9.80;8.80;;;16.50;99.90;;;;;;5026048;28;20182;-50
2021/08/30 06:27:43;;;;;;;9.20;8.30;;;16.30;99.90;;;;;;5018536;28;20290;-49
2021/08/30 06:30:10;;;;;;;10.17;9.00;;;16.50;99.90;;;;;;5011070;28;20195;-48
2021/08/30 06:32:35;;;;;;;10.75;9.65;;;16.40;99.90;;;;;;5025171;28;20187;-49
2021/08/30 06:35:01;;;;;;;10.47;9.43;;;16.60;99.90;;;;;;5023940;28;20533;-51
2021/08/30 06:37:27;;;;;;;9.43;8.53;;;16.60;99.90;;;;;;5030375;28;20309;-49
2021/08/30 06:39:53;;;;;;;9.93;8.93;;;16.80;99.90;;;;;;5022027;28;20464;-49
2021/08/30 06:42:18;;;;;;;8.93;8.03;;;16.80;99.90;;;;;;5019602;28;20513;-50
2021/08/30 06:44:44;;;;;;;8.13;7.33;;;16.90;99.90;;;;;;5030007;28;20213;-50
2021/08/30 06:47:10;;;;;;;10.20;9.20;;;17.00;99.90;;;;;;5021304;28;20202;-50
2021/08/30 06:49:36;;;;;;;10.80;9.80;;;17.20;99.90;;;;;;5022781;28;20268;-51
2021/08/30 06:52:02;;;;;;;8.95;8.15;;;17.10;99.90;;;;;;5027534;28;20494;-51
2021/08/30 06:54:28;;;;;;;8.70;7.90;;;17.40;99.90;;;;;;5025931;28;20647;-51
2021/08/30 06:56:54;;;;;;;8.60;7.80;;;17.30;99.90;;;;;;5020576;28;20246;-50
2021/08/30 06:59:19;;;;;;;9.93;8.93;;;17.10;99.90;;;;;;5027824;28;20776;-49
2021/08/30 07:01:45;;;;;;;9.97;9.00;;;17.10;99.90;;;;;;5028497;28;20647;-48
2021/08/30 07:04:11;;;;;;;9.40;8.03;;;17.00;99.90;;;;;;5029377;28;20193;-50
2021/08/30 07:06:36;;;;;;;9.80;8.93;;;16.90;99.90;;;;;;5027832;28;20216;-49
2021/08/30 07:09:03;;;;;;;9.00;8.20;;;16.80;99.90;;;;;;5028763;28;20561;-49
2021/08/30 07:11:30;;;;;;;10.65;9.55;;;17.00;99.90;;;;;;5025033;28;20194;-49
2021/08/30 07:13:56;;;;;;;10.10;9.13;;;16.90;99.90;;;;;;5028166;28;20701;-50
2021/08/30 07:16:22;;;;;;;8.57;7.78;;;17.00;99.90;;;;;;5031530;28;20213;-51
2021/08/30 07:18:48;;;;;;;10.50;8.17;;;16.90;99.90;;;;;;5015987;28;20183;-50
2021/08/30 07:21:13;;;;;;;8.50;7.77;;;16.90;99.90;;;;;;5022044;28;20186;-50
2021/08/30 07:23:39;;;;;;;9.33;8.30;;;17.00;99.90;;;;;;5026461;28;21031;-50
2021/08/30 07:26:05;;;;;;;8.60;7.83;;;17.30;99.90;;;;;;5028509;28;20217;-50
2021/08/30 07:28:31;;;;;;;8.93;7.80;;;17.60;99.90;;;;;;5021308;28;20549;-50
2021/08/30 07:30:57;;;;;;;9.27;8.37;;;17.70;99.90;;;;;;5025236;28;20537;-51
2021/08/30 07:33:22;;;;;;;9.57;8.70;;;17.70;99.90;;;;;;5029736;28;20436;-51
2021/08/30 07:35:48;;;;;;;9.27;8.37;;;17.80;99.90;;;;;;5029383;28;20743;-50
2021/08/30 07:38:14;;;;;;;9.30;8.40;;;17.70;99.90;;;;;;5029196;28;20469;-51
2021/08/30 07:40:40;;;;;;;9.60;8.40;;;17.80;99.90;;;;;;5025882;28;20175;-50
2021/08/30 07:43:05;;;;;;;10.87;8.50;;;17.70;99.90;;;;;;5025881;28;20552;-50
2021/08/30 07:45:31;;;;;;;9.23;8.30;;;17.80;99.90;;;;;;5026106;28;20656;-50
2021/08/30 07:47:57;;;;;;;8.80;7.90;;;17.90;99.90;;;;;;5025774;28;20608;-50
2021/08/30 07:50:23;;;;;;;9.70;8.77;;;17.70;99.90;;;;;;5023559;28;20446;-51
2021/08/30 07:52:49;;;;;;;9.00;8.10;;;17.70;99.90;;;;;;5025407;28;20827;-51
2021/08/30 07:55:15;;;;;;;7.83;7.13;;;17.80;99.90;;;;;;5024864;28;20499;-51
2021/08/30 07:57:41;;;;;;;7.72;7.03;;;17.50;99.90;;;;;;5030010;28;20205;-50
2021/08/30 08:00:08;;;;;;;7.65;6.95;;;17.50;99.90;;;;;;5032413;28;20388;-51
2021/08/30 08:02:34;;;;;;;8.90;8.00;;;17.50;99.90;;;;;;5032346;28;20873;-51
2021/08/30 08:04:59;;;;;;;12.93;11.87;;;17.40;99.90;;;;;;5030411;28;20192;-51
2021/08/30 08:07:25;;;;;;;8.73;7.93;;;17.30;99.90;;;;;;5033311;28;20210;-52
2021/08/30 08:09:51;;;;;;;8.00;7.20;;;17.40;99.90;;;;;;5032399;28;20200;-52
2021/08/30 08:12:16;;;;;;;9.70;8.70;;;17.20;99.90;;;;;;5031259;28;20190;-51
2021/08/30 08:14:42;;;;;;;8.00;7.30;;;17.30;99.90;;;;;;5031998;28;20959;-52
2021/08/30 08:17:08;;;;;;;10.00;9.20;;;17.40;99.90;;;;;;5029015;28;20272;-52
2021/08/30 08:19:33;;;;;;;9.17;8.27;;;17.50;99.90;;;;;;5017148;28;20604;-52
2021/08/30 08:22:01;;;;;;;8.20;7.47;;;17.50;99.90;;;;;;5027315;28;20190;-51
2021/08/30 08:24:28;;;;;;;7.53;6.65;;;17.50;99.90;;;;;;5031153;28;20194;-51
2021/08/30 08:26:55;;;;;;;10.15;7.50;;;17.20;99.90;;;;;;5032183;28;20202;-51
2021/08/30 08:29:21;;;;;;;8.90;8.00;;;17.30;99.90;;;;;;5032292;28;20274;-52
2021/08/30 08:31:48;;;;;;;8.48;7.68;;;17.00;99.90;;;;;;5033205;28;20699;-52
2021/08/30 08:34:13;;;;;;;9.18;7.57;;;17.10;99.90;;;;;;5024081;28;20187;-51
2021/08/30 08:36:40;;;;;;;8.43;7.63;;;17.30;99.90;;;;;;5032351;28;20220;-51
2021/08/30 08:39:06;;;;;;;9.23;8.20;;;17.10;99.90;;;;;;5024878;28;20321;-52
2021/08/30 08:41:36;;;;;;;8.13;7.38;;;16.90;99.90;;;;;;5030830;28;20214;-54
2021/08/30 08:44:04;;;;;;;11.10;9.75;;;17.10;99.90;;;;;;5022109;28;20186;-51
2021/08/30 08:46:31;;;;;;;8.05;7.35;;;17.40;99.90;;;;;;5026299;28;20236;-51
2021/08/30 08:48:58;;;;;;;8.43;7.68;;;17.30;99.90;;;;;;5030398;28;20227;-51
2021/08/30 08:51:24;;;;;;;7.57;6.95;;;17.20;99.90;;;;;;5028639;28;20183;-52
2021/08/30 08:53:50;;;;;;;8.15;7.35;;;17.40;99.90;;;;;;5029680;28;20178;-51
2021/08/30 08:56:23;;;;;;;7.40;6.70;;;17.40;99.90;;;;;;5029341;28;20186;-51
2021/08/30 08:58:49;;;;;;;7.28;6.57;;;17.10;99.90;;;;;;5030391;28;20257;-50
2021/08/30 09:01:15;;;;;;;6.70;6.10;;;17.10;99.90;;;;;;5032296;28;20748;-50
2021/08/30 09:03:50;;;;;;;7.07;6.47;;;17.20;99.90;;;;;;5032080;28;20187;-51
2021/08/30 09:06:38;;;;;;;8.02;7.28;;;17.30;99.90;;;;;;5028913;28;20417;-50
2021/08/30 09:09:07;;;;;;;11.50;9.88;;;17.40;99.90;;;;;;5027012;28;20190;-51
2021/08/30 09:11:46;;;;;;;7.30;6.63;;;17.80;99.90;;;;;;5026670;28;20237;-49
2021/08/30 09:14:17;;;;;;;6.88;6.22;;;18.30;99.90;;;;;;5027727;28;20200;-51
2021/08/30 09:16:45;;;;;;;7.47;6.88;;;18.70;99.90;;;;;;5020828;28;20218;-49
2021/08/30 09:19:13;;;;;;;7.55;6.25;;;18.80;99.90;;;;;;5017580;28;20686;-49
2021/08/30 09:21:47;;;;;;;7.47;6.78;;;19.00;99.90;;;;;;5019031;28;20178;-50
2021/08/30 09:24:18;;;;;;;7.10;6.38;;;19.20;99.90;;;;;;5027182;28;20652;-51
2021/08/30 09:26:43;;;;;;;7.80;7.00;;;19.60;99.90;;;;;;5026061;28;20748;-50
2021/08/30 09:29:21;;;;;;;7.73;7.10;;;19.70;99.90;;;;;;5026620;28;20387;-51
2021/08/30 09:32:04;;;;;;;8.40;7.68;;;19.50;99.90;;;;;;5026498;28;20178;-51
2021/08/30 09:34:34;;;;;;;9.07;8.27;;;19.50;99.90;;;;;;5017756;28;20571;-53
2021/08/30 09:37:01;;;;;;;8.18;7.10;;;19.40;99.90;;;;;;5017919;28;20217;-52
2021/08/30 09:39:40;;;;;;;8.65;7.75;;;19.50;99.90;;;;;;5025216;28;20178;-50
2021/08/30 09:42:11;;;;;;;8.20;7.50;;;19.70;99.90;;;;;;5006432;28;20220;-52
2021/08/30 09:44:37;;;;;;;9.55;8.75;;;19.80;99.90;;;;;;5030963;28;20644;-50
2021/08/30 09:47:17;;;;;;;9.10;8.23;;;19.60;99.90;;;;;;5026893;28;20213;-51
2021/08/30 09:49:50;;;;;;;10.93;9.88;;;19.30;99.90;;;;;;5028521;28;20193;-50
2021/08/30 09:52:19;;;;;;;10.18;9.27;;;18.90;99.90;;;;;;5018475;28;20190;-51
2021/08/30 09:54:44;;;;;;;10.60;9.52;;;18.90;99.90;;;;;;5028261;28;20214;-51
2021/08/30 09:57:12;;;;;;;9.43;8.40;;;18.90;99.90;;;;;;5027336;28;20214;-50
2021/08/30 09:59:39;;;;;;;10.70;9.70;;;18.70;99.90;;;;;;5029822;28;20187;-50
2021/08/30 10:02:05;;;;;;;13.00;10.70;;;18.60;99.90;;;;;;5030068;28;20181;-51
2021/08/30 10:04:33;;;;;;;10.75;9.65;;;18.50;99.90;;;;;;5028120;28;20189;-51
2021/08/30 10:07:00;;;;;;;10.85;9.82;;;18.40;99.90;;;;;;5022412;28;20694;-50
2021/08/30 10:09:27;;;;;;;12.68;11.02;;;18.30;99.90;;;;;;5013945;28;20197;-52
2021/08/30 10:11:55;;;;;;;11.57;10.38;;;18.10;99.90;;;;;;5010125;28;20312;-50
2021/08/30 10:14:26;;;;;;;12.68;11.35;;;18.10;99.90;;;;;;5025216;28;20218;-51
2021/08/30 10:16:54;;;;;;;12.07;10.88;;;17.60;99.90;;;;;;5029601;28;20219;-50
2021/08/30 10:19:37;;;;;;;12.52;11.35;;;17.70;99.90;;;;;;5029177;28;20193;-50
2021/08/30 10:22:16;;;;;;;13.48;12.10;;;17.60;99.90;;;;;;5009588;28;20611;-50
2021/08/30 10:24:43;;;;;;;14.30;11.15;;;17.80;99.90;;;;;;5017344;28;20189;-51
2021/08/30 10:27:10;;;;;;;12.07;10.88;;;17.70;99.90;;;;;;5020213;28;20330;-51
2021/08/30 10:29:41;;;;;;;20.30;11.68;;;17.80;99.90;;;;;;5029271;28;20198;-51
2021/08/30 10:32:20;;;;;;;12.25;10.65;;;17.80;99.90;;;;;;5027319;28;20677;-50
2021/08/30 10:34:46;;;;;;;12.35;11.15;;;18.10;99.90;;;;;;5009404;28;20191;-51
2021/08/30 10:37:19;;;;;;;11.10;10.00;;;18.00;99.90;;;;;;5025394;28;20507;-51
2021/08/30 10:39:47;;;;;;;12.13;10.85;;;17.60;99.90;;;;;;5028999;28;20170;-52
2021/08/30 10:42:14;;;;;;;11.90;10.70;;;17.60;99.90;;;;;;5022874;28;20410;-51
2021/08/30 10:44:49;;;;;;;13.80;11.13;;;17.50;99.90;;;;;;5028643;28;20194;-51
2021/08/30 10:47:15;;;;;;;13.60;12.20;;;17.70;99.90;;;;;;5029168;28;20267;-53
2021/08/30 10:49:43;;;;;;;13.10;11.50;;;17.80;99.90;;;;;;5022868;28;20198;-51
2021/08/30 10:52:11;;;;;;;12.02;10.82;;;17.50;99.90;;;;;;5028880;28;20428;-50
2021/08/30 10:54:52;;;;;;;12.82;11.15;;;17.70;99.90;;;;;;5028102;28;20194;-49
2021/08/30 10:57:19;;;;;;;12.63;11.32;;;17.60;99.90;;;;;;5026482;28;20223;-50
2021/08/30 10:59:47;;;;;;;13.00;11.70;;;17.90;99.90;;;;;;5028573;28;20552;-50
2021/08/30 11:02:13;;;;;;;12.82;11.23;;;17.80;99.90;;;;;;5028835;28;20233;-49
2021/08/30 11:04:41;;;;;;;11.13;10.02;;;17.90;99.90;;;;;;5027649;28;20190;-50
2021/08/30 11:07:08;;;;;;;8.80;8.00;;;18.00;99.90;;;;;;5019140;28;20259;-50
2021/08/30 11:09:35;;;;;;;8.23;7.38;;;17.90;99.90;;;;;;5028975;28;20243;-50
2021/08/30 11:12:12;;;;;;;6.72;5.95;;;17.80;99.90;;;;;;5018862;28;20182;-50
2021/08/30 11:14:39;;;;;;;6.80;6.07;;;17.80;99.90;;;;;;5027758;28;20280;-49
2021/08/30 11:17:05;;;;;;;7.35;6.55;;;17.90;99.90;;;;;;5029050;28;20272;-50
2021/08/30 11:19:31;;;;;;;8.70;7.90;;;18.10;99.90;;;;;;5026699;28;20555;-50
2021/08/30 11:21:59;;;;;;;9.90;8.40;;;18.40;99.90;;;;;;5022902;28;20187;-50
2021/08/30 11:24:40;;;;;;;9.65;7.55;;;18.80;99.90;;;;;;5022923;28;20440;-49
2021/08/30 11:27:08;;;;;;;8.30;7.50;;;19.10;99.90;;;;;;5026798;28;20213;-50
2021/08/30 11:29:40;;;;;;;8.20;7.25;;;19.40;99.90;;;;;;5031328;28;20187;-50
2021/08/30 11:32:06;;;;;;;8.27;7.57;;;19.40;99.90;;;;;;5033451;28;20190;-52
2021/08/30 11:34:36;;;;;;;8.77;7.97;;;19.60;99.90;;;;;;5025851;28;20565;-51
2021/08/30 11:37:03;;;;;;;8.85;7.68;;;19.80;99.90;;;;;;5025604;28;20807;-50
2021/08/30 11:39:32;;;;;;;7.70;6.97;;;19.70;99.90;;;;;;5028629;28;20225;-50
2021/08/30 11:42:07;;;;;;;9.10;8.30;;;19.40;99.90;;;;;;5017201;28;20186;-51
2021/08/30 11:44:34;;;;;;;8.23;7.43;;;19.20;99.90;;;;;;5030612;28;20197;-50
2021/08/30 11:47:03;;;;;;;8.70;7.60;;;19.10;99.90;;;;;;5028063;28;20241;-50
2021/08/30 11:49:31;;;;;;;9.25;8.35;;;19.40;99.90;;;;;;5031190;28;20186;-50
2021/08/30 11:52:02;;;;;;;9.30;8.40;;;19.40;99.90;;;;;;5029074;28;20186;-49
2021/08/30 11:54:30;;;;;;;10.60;9.50;;;19.30;99.90;;;;;;5022029;28;20190;-50
2021/08/30 11:57:06;;;;;;;10.02;9.13;;;19.30;99.90;;;;;;5027068;28;20249;-49
2021/08/30 11:59:35;;;;;;;11.65;9.55;;;19.20;99.90;;;;;;5029955;28;20174;-48
2021/08/30 12:02:02;;;;;;;10.27;9.32;;;19.30;99.90;;;;;;5031452;28;20248;-50
2021/08/30 12:04:34;;;;;;;11.00;9.88;;;19.50;99.90;;;;;;5028511;28;20540;-50
2021/08/30 12:07:08;;;;;;;9.40;8.60;;;19.50;99.90;;;;;;5029465;28;20232;-50
2021/08/30 12:09:47;;;;;;;10.73;9.70;;;19.50;99.90;;;;;;5023772;28;20650;-50
2021/08/30 12:12:17;;;;;;;9.85;8.95;;;19.40;99.90;;;;;;5027420;28;20185;-51
2021/08/30 12:15:01;;;;;;;9.80;8.90;;;19.30;99.90;;;;;;5026173;28;20193;-51
2021/08/30 12:17:28;;;;;;;12.27;9.45;;;19.30;99.90;;;;;;5020884;28;20216;-50
2021/08/30 12:19:58;;;;;;;9.80;8.85;;;19.30;99.90;;;;;;5022414;28;20268;-50
2021/08/30 12:22:24;;;;;;;8.95;7.97;;;19.20;99.90;;;;;;5031527;28;20193;-50
2021/08/30 12:24:50;;;;;;;9.75;8.85;;;19.10;99.90;;;;;;5031105;28;20653;-49
2021/08/30 12:27:20;;;;;;;10.87;9.77;;;19.10;99.90;;;;;;5029654;28;20700;-49
2021/08/30 12:29:46;;;;;;;14.75;10.27;;;19.10;99.90;;;;;;5022303;28;20445;-49
2021/08/30 12:32:12;;;;;;;11.23;10.13;;;19.10;99.90;;;;;;5031077;28;20232;-49
2021/08/30 12:34:42;;;;;;;12.57;9.77;;;19.00;99.90;;;;;;5023436;28;20188;-49
2021/08/30 12:37:07;;;;;;;12.40;10.23;;;18.80;99.90;;;;;;5026398;28;20300;-50
2021/08/30 12:39:33;;;;;;;11.13;10.03;;;18.80;99.90;;;;;;5022689;28;20744;-49
2021/08/30 12:41:59;;;;;;;12.93;11.70;;;18.70;99.90;;;;;;5018976;28;20186;-50
2021/08/30 12:44:24;;;;;;;12.43;11.13;;;18.50;99.90;;;;;;5023742;28;20681;-49
2021/08/30 12:46:50;;;;;;;12.40;11.20;;;18.40;99.90;;;;;;5025046;28;20688;-50
2021/08/30 12:49:16;;;;;;;12.00;10.00;;;18.50;99.90;;;;;;5019753;28;20214;-50